METAR Data
IDs: Format: Raw Decoded Include TAF

Data at: 0941 UTC 21 Oct 2019

METAR for:KELA (Eagle Lake Arpt, TX, US)
Text:KELA 210935Z AUTO 22006KT 10SM SCT011 BKN016 BKN055 27/26 A2971 RMK AO2 LTG DSNT W T02730261
Temperature: 27.3°C ( 81°F)
Dewpoint: 26.1°C ( 79°F) [RH = 93%]
Pressure (altimeter):29.71 inches Hg (1006.2 mb)
Winds:from the SW (220 degrees) at 7 MPH (6 knots; 3.1 m/s)
Visibility:10 or more sm (16+ km)
Ceiling:1600 feet AGL
Clouds: scattered clouds at 1100 feet AGL, broken clouds at 1600 feet AGL, broken clouds at 5500 feet AGL
QC Flag:automated observation with no human augmentation

TAF for:KELA (Eagle Lake Arpt, TX, US)
Text:No data found